Main page
METAR-TAF:

METAR-TAF

Airports :

Milan–Malpensa Airport

Milan, Italy

latitude: 45-37N, longitude: 008-44E, elevation: 234 m

Current weather observation

The report was made 41 minutes ago, at 12:50 UTC
Wind 2 kt from variable directions
Temperature 7°C
Humidity 61%
Pressure 1020 hPa
Visibility: 8000 m

METAR: LIMC 171250Z VRB02KT 8000 NSC 07/M00 Q1020 NOSIG

Time: 14:31 (13:31 UTC)

Forecast

The report was made 2 hours and 31 minutes ago, at 11:00 UTC
Forecast valid from 17 at 12 UTC to 18 at 18 UTC
Wind 5 kt from variable directions
Visibility: 7000 m
Scattered clouds at a height of 5000 ft
Temporary
from 18 at 02 UTC to 18 at 08 UTC
Visibility: 1500 m
patches of fog

TAF: LIMC 171100Z 1712/1818 VRB05KT 7000 SCT050 TEMPO 1802/1808 1500 BCFG

Weather observations and forecasts of more than 4000 airports (METAR and TAF reports).

The available stations are represented by yellow and red dots on the map.

Hover mouse over dot to see the name of the station.

Then click to see weather observations and forecasts.

To change the map : click on the green buttons with a black cross to zoom in, on the green button with a dash to zoom out, or on the green arrows for adjacent maps.


METAR-TAF: